Time;durP1;ratioP1;P1;durP2;ratioP2;P2;SDS_P1;SDS_P2;PMS_P1;PMS_P2;Temp;Humidity;BMP_temperature;BMP_pressure;BME280_temperature;BME280_humidity;BME280_pressure;Samples;Min_cycle;Max_cycle;Signal;HPM_P1;HPM_P2
2022/04/13 00:07:06;;;;;;;44.85;22.90;;;;;;;11.88;100.00;98283.91;4892441;29;20072;-89
2022/04/13 00:22:40;;;;;;;36.67;19.77;;;;;;;11.93;100.00;98289.28;4890909;29;20131;-88
2022/04/13 00:30:00;;;;;;;32.63;19.60;;;;;;;11.73;100.00;98290.34;4895876;29;20062;-89
2022/04/13 00:41:34;;;;;;;27.05;17.35;;;;;;;11.69;100.00;98305.78;4903337;29;20066;-89
2022/04/13 01:31:44;;;;;;;19.98;13.10;;;;;;;11.35;100.00;98299.25;4874326;29;20535;-89
2022/04/13 01:34:15;;;;;;;23.27;13.65;;;;;;;11.18;100.00;98263.03;4862733;29;20028;-90
2022/04/13 01:36:46;;;;;;;20.67;13.80;;;;;;;11.19;100.00;98274.34;4887333;29;20106;-91
2022/04/13 01:39:24;;;;;;;24.58;14.52;;;;;;;11.67;100.00;98349.84;4860401;29;20036;-90
2022/04/13 01:41:53;;;;;;;21.42;13.40;;;;;;;11.16;100.00;98285.28;4873608;29;20060;-92
2022/04/13 01:44:20;;;;;;;20.58;13.48;;;;;;;11.63;100.00;98345.28;4858384;29;20045;-90
2022/04/13 01:46:46;;;;;;;26.10;13.82;;;;;;;11.60;100.00;98349.13;4863539;29;20037;-92
2022/04/13 01:49:11;;;;;;;20.58;12.95;;;;;;;11.31;100.00;98300.69;4877112;29;20101;-91
2022/04/13 01:51:43;;;;;;;24.23;14.10;;;;;;;11.07;100.00;98287.41;4867196;29;20033;-90
2022/04/13 01:54:38;;;;;;;22.30;13.32;;;;;;;11.12;100.00;98295.41;4867151;29;20040;-91
2022/04/13 01:57:06;;;;;;;23.60;13.27;;;;;;;11.57;100.00;98358.25;4850991;29;20060;-90
2022/04/13 01:59:40;;;;;;;25.80;14.45;;;;;;;11.08;100.00;98310.81;4860653;29;20519;-89
2022/04/13 02:02:37;;;;;;;19.05;13.75;;;;;;;11.01;100.00;98299.56;4877751;29;20409;-90
2022/04/13 02:09:26;;;;;;;20.90;13.82;;;;;;;10.92;100.00;98296.41;5408694;23;20040;-91
2022/04/13 02:21:32;;;;;;;;;;;;;;;;;;;;;
2022/04/13 02:24:04;;;;;;;23.10;15.55;;;;;;;11.55;100.00;98334.00;4796561;29;20046;-92
2022/04/13 02:27:35;;;;;;;;;;;;;;;;;;;;;
2022/04/13 04:07:56;;;;;;;20.95;14.07;;;;;;;11.43;100.00;98399.63;4381858;23;20316;31
2022/04/13 04:10:35;;;;;;;23.02;14.60;;;;;;;10.83;100.00;98321.34;4791745;29;20069;-91
2022/04/13 04:13:19;;;;;;;24.20;14.43;;;;;;;11.39;100.00;98405.50;4795512;29;20064;-90
2022/04/13 04:28:09;;;;;;;25.48;13.77;;;;;;;11.11;100.00;98341.09;4823529;29;20054;-90
2022/04/13 04:30:58;;;;;;;31.80;14.75;;;;;;;11.43;100.00;98412.75;4801142;29;20130;-88
2022/04/13 04:38:26;;;;;;;;;;;;;;;;;;;;;
2022/04/13 04:54:35;;;;;;;23.45;14.18;;;;;;;10.82;100.00;98390.59;4867450;29;20492;-92
2022/04/13 04:57:07;;;;;;;;;;;;;;;11.17;100.00;98450.53;4860847;29;20500;-90
2022/04/13 05:03:33;;;;;;;25.98;14.82;;;;;;;11.42;100.00;98465.53;4881596;29;20043;-92
2022/04/13 05:06:00;;;;;;;29.23;16.25;;;;;;;11.07;100.00;98392.44;4862651;29;20053;-90
2022/04/13 05:08:27;;;;;;;25.70;14.80;;;;;;;11.14;100.00;98383.50;4858407;29;20041;-92
2022/04/13 05:10:53;;;;;;;25.42;16.13;;;;;;;11.26;100.00;98401.19;4859863;29;20037;-92
2022/04/13 05:17:14;;;;;;;25.52;15.35;;;;;;;11.64;100.00;98455.44;4873449;29;20052;-91
2022/04/13 05:19:52;;;;;;;22.08;14.93;;;;;;;11.42;100.00;98410.38;4863052;29;20042;-91
2022/04/13 05:26:18;;;;;;;23.33;14.55;;;;;;;11.96;100.00;98491.34;4878997;29;20086;-92
2022/04/13 05:36:50;;;;;;;23.25;14.07;;;;;;;11.60;100.00;98414.84;4880897;29;20096;-89
2022/04/13 05:46:43;;;;;;;23.57;14.03;;;;;;;12.08;100.00;98502.00;5942743;23;20165;31
2022/04/13 05:49:10;;;;;;;24.08;14.25;;;;;;;11.65;100.00;98436.00;4786772;29;20322;-90
2022/04/13 05:51:35;;;;;;;26.40;14.75;;;;;;;12.12;100.00;98508.47;4791369;29;20066;-89
2022/04/13 05:54:01;;;;;;;26.45;15.27;;;;;;;11.78;100.00;98445.59;4788255;29;20064;-90
2022/04/13 05:56:32;;;;;;;26.40;14.70;;;;;;;11.83;100.00;98437.06;4811394;29;20043;-90
2022/04/13 05:59:01;;;;;;;23.25;14.00;;;;;;;11.94;100.00;98443.44;4766456;29;20046;-88
2022/04/13 06:05:12;;;;;;;25.35;14.82;;;;;;;12.39;100.00;98513.44;4811014;29;20055;-86
2022/04/13 06:07:40;;;;;;;24.25;13.68;;;;;;;12.50;100.00;98515.34;4807802;29;20500;-85
2022/04/13 06:10:06;;;;;;;20.52;13.18;;;;;;;12.63;100.00;98524.91;4804906;29;20038;-86
2022/04/13 06:12:32;;;;;;;24.60;12.70;;;;;;;12.91;100.00;98526.19;4810524;29;20033;-87
2022/04/13 06:15:09;;;;;;;21.20;13.13;;;;;;;12.86;100.00;98536.59;4800789;29;20035;-88
2022/04/13 06:17:35;;;;;;;17.50;11.93;;;;;;;12.77;100.00;98536.09;4800114;29;20039;-88
2022/04/13 06:20:02;;;;;;;17.27;11.90;;;;;;;12.84;100.00;98538.66;4789257;29;20485;-86
2022/04/13 06:22:31;;;;;;;20.20;11.93;;;;;;;12.89;100.00;98549.31;4797749;29;20062;-85
2022/04/13 06:24:57;;;;;;;18.33;10.63;;;;;;;13.03;100.00;98542.03;4804416;29;20060;-85
2022/04/13 06:27:23;;;;;;;14.93;11.07;;;;;;;13.15;100.00;98544.72;4796415;29;20077;-88
2022/04/13 06:29:49;;;;;;;17.73;11.85;;;;;;;13.13;100.00;98555.50;4796081;29;20463;-85
2022/04/13 06:32:14;;;;;;;14.93;10.38;;;;;;;13.18;100.00;98568.03;4803907;29;20045;-86
2022/04/13 06:34:40;;;;;;;15.93;9.70;;;;;;;13.19;100.00;98568.81;4787954;29;20039;-88
2022/04/13 06:37:06;;;;;;;14.40;10.13;;;;;;;13.32;100.00;98552.00;4799907;29;20031;-88
2022/04/13 06:39:32;;;;;;;17.27;9.93;;;;;;;13.46;100.00;98568.47;4786179;29;20034;-85
2022/04/13 06:41:57;;;;;;;15.88;9.45;;;;;;;13.64;100.00;98570.25;4799409;29;20041;-88
2022/04/13 06:44:23;;;;;;;14.32;8.98;;;;;;;13.83;100.00;98570.94;4790230;29;20046;-88
2022/04/13 06:46:48;;;;;;;13.48;9.95;;;;;;;13.84;100.00;98573.38;4788137;29;20062;-88
2022/04/13 06:49:14;;;;;;;13.23;8.65;;;;;;;13.67;100.00;98575.06;4817784;29;20063;-89
2022/04/13 06:51:39;;;;;;;11.27;8.25;;;;;;;14.06;100.00;98599.22;4800082;29;20103;-91
2022/04/13 06:54:05;;;;;;;11.13;8.00;;;;;;;14.01;100.00;98580.63;4796780;29;20074;-89
2022/04/13 06:56:32;;;;;;;12.20;7.90;;;;;;;14.11;100.00;98591.41;4788958;29;20122;-87
2022/04/13 06:58:58;;;;;;;10.15;7.63;;;;;;;14.11;100.00;98594.03;4801348;29;20045;-89
2022/04/13 07:01:24;;;;;;;12.65;7.60;;;;;;;14.02;100.00;98578.78;4791627;29;20042;-88
2022/04/13 07:03:51;;;;;;;10.02;7.93;;;;;;;14.06;100.00;98599.22;4790163;29;20062;-88
2022/04/13 07:06:19;;;;;;;13.35;8.27;;;;;;;13.89;100.00;98608.81;4790778;29;20087;-88
2022/04/13 07:08:45;;;;;;;12.10;8.15;;;;;;;13.59;100.00;98599.13;4787672;29;20045;-89
2022/04/13 07:11:10;;;;;;;11.50;8.38;;;;;;;13.71;100.00;98587.59;4801933;29;20095;-89
2022/04/13 07:13:36;;;;;;;12.88;8.45;;;;;;;13.60;100.00;98611.28;4790744;29;20058;-89
2022/04/13 07:16:03;;;;;;;10.85;8.02;;;;;;;13.39;100.00;98616.00;4806150;29;20042;-89
2022/04/13 07:18:28;;;;;;;15.10;8.35;;;;;;;13.44;100.00;98624.06;4823443;29;20410;-92
2022/04/13 07:20:54;;;;;;;11.48;8.45;;;;;;;13.77;100.00;98645.72;4791451;29;20037;-89
2022/04/13 07:23:19;;;;;;;13.00;9.00;;;;;;;13.91;100.00;98643.69;4790609;29;20034;-87
2022/04/13 07:25:45;;;;;;;13.25;8.50;;;;;;;13.64;100.00;98621.13;4795736;29;20030;-88
2022/04/13 07:28:10;;;;;;;13.77;9.52;;;;;;;13.62;100.00;98599.47;4783892;29;20075;-87
2022/04/13 07:30:36;;;;;;;10.10;8.18;;;;;;;13.83;100.00;98635.09;4798219;29;20097;-87
2022/04/13 07:33:02;;;;;;;14.05;9.15;;;;;;;14.17;100.00;98631.13;4787942;29;20477;-89
2022/04/13 07:35:29;;;;;;;11.25;8.25;;;;;;;14.61;100.00;98654.56;4783182;29;20560;-87
2022/04/13 07:37:56;;;;;;;12.52;8.73;;;;;;;14.65;100.00;98632.72;4798113;29;20687;-87
2022/04/13 07:40:22;;;;;;;11.57;8.50;;;;;;;14.83;100.00;98660.09;4810036;29;20065;-87
2022/04/13 07:42:47;;;;;;;12.20;9.30;;;;;;;14.57;100.00;98625.97;4789565;29;20039;-83
2022/04/13 07:45:14;;;;;;;12.80;8.27;;;;;;;14.75;100.00;98647.25;4802409;29;20114;-88
2022/04/13 07:47:40;;;;;;;11.15;8.45;;;;;;;14.73;100.00;98638.72;4823409;29;20066;-88
2022/04/13 07:50:07;;;;;;;14.23;8.88;;;;;;;14.64;100.00;98630.31;4816925;29;20406;-85
2022/04/13 07:52:35;;;;;;;11.48;8.95;;;;;;;14.78;100.00;98639.63;4788497;29;20031;-90
2022/04/13 07:55:01;;;;;;;11.70;8.25;;;;;;;15.01;100.00;98642.47;4791770;29;20034;-91
2022/04/13 07:57:29;;;;;;;12.77;7.80;;;;;;;14.77;100.00;98630.09;4786584;29;20063;-91
2022/04/13 07:59:55;;;;;;;12.02;7.95;;;;;;;14.98;100.00;98657.78;4793230;29;20061;-90
2022/04/13 08:02:21;;;;;;;10.57;7.07;;;;;;;15.36;100.00;98674.09;4791675;29;20048;-88
2022/04/13 08:04:48;;;;;;;11.70;6.85;;;;;;;14.94;100.00;98656.63;4820460;29;20469;-88
2022/04/13 08:07:14;;;;;;;8.93;7.28;;;;;;;15.16;100.00;98673.69;4788046;29;20038;-90
2022/04/13 08:09:40;;;;;;;9.27;7.20;;;;;;;15.16;100.00;98677.16;4800988;29;20043;-88
2022/04/13 08:12:06;;;;;;;10.85;7.15;;;;;;;14.88;100.00;98652.25;4805755;29;20060;-89
2022/04/13 08:14:32;;;;;;;9.45;6.85;;;;;;;15.38;100.00;98676.53;4804130;29;20524;-88
2022/04/13 08:16:57;;;;;;;8.63;6.32;;;;;;;15.55;100.00;98674.75;4792289;29;20031;-89
2022/04/13 08:19:23;;;;;;;10.38;6.20;;;;;;;15.50;100.00;98668.56;4818644;29;20049;-89
2022/04/13 08:21:49;;;;;;;7.70;5.68;;;;;;;16.08;100.00;98693.16;4803844;29;20497;-87
2022/04/13 08:24:17;;;;;;;9.90;6.20;;;;;;;15.91;100.00;98679.91;4806668;29;20035;-91
2022/04/13 08:26:44;;;;;;;7.53;5.78;;;;;;;16.08;100.00;98682.56;4791850;29;20046;-89
2022/04/13 08:29:10;;;;;;;9.13;5.85;;;;;;;16.31;100.00;98699.38;4822966;29;20050;-86
2022/04/13 08:31:37;;;;;;;8.55;5.82;;;;;;;15.80;100.00;98702.72;4791144;29;20039;-87
2022/04/13 08:34:02;;;;;;;6.25;5.20;;;;;;;15.45;100.00;98690.41;4803685;29;20118;-87
2022/04/13 08:36:28;;;;;;;8.88;5.43;;;;;;;15.66;100.00;98690.78;4787043;29;20082;-89
2022/04/13 08:38:53;;;;;;;8.18;5.32;;;;;;;15.55;100.00;98709.13;4791402;29;20026;-87
2022/04/13 08:41:30;;;;;;;6.78;5.38;;;;;;;15.42;100.00;98709.41;4801260;29;20035;-88
2022/04/13 08:44:12;;;;;;;7.55;5.15;;;;;;;15.47;100.00;98733.28;4803688;29;20047;-88
2022/04/13 08:46:39;;;;;;;6.93;4.72;;;;;;;15.33;100.00;98732.75;4788566;29;20367;-89
2022/04/13 08:49:09;;;;;;;4.75;4.28;;;;;;;15.09;100.00;98738.09;4788282;29;20035;-87
2022/04/13 08:51:36;;;;;;;5.55;4.13;;;;;;;15.20;100.00;98739.09;4804631;29;20490;-89
2022/04/13 08:54:08;;;;;;;6.38;3.88;;;;;;;15.46;100.00;98755.50;4788800;29;20098;-89
2022/04/13 08:56:35;;;;;;;5.75;3.92;;;;;;;15.10;100.00;98734.41;4796172;29;20031;-89
2022/04/13 08:59:11;;;;;;;7.65;4.93;;;;;;;14.48;100.00;98753.31;4805412;29;20027;-89
2022/04/13 09:02:23;;;;;;;6.82;4.28;;;;;;;14.38;100.00;98765.22;4810116;29;20052;-90
2022/04/13 09:05:11;;;;;;;6.78;4.85;;;;;;;13.87;100.00;98770.00;4807360;29;20095;-88
2022/04/13 09:08:05;;;;;;;7.40;5.13;;;;;;;14.17;100.00;98742.78;4805969;29;20056;-90
2022/04/13 09:10:43;;;;;;;5.25;4.68;;;;;;;14.76;100.00;98754.53;4813202;29;20035;-85
2022/04/13 09:13:26;;;;;;;;;;;;;;;14.77;100.00;98764.06;4804596;29;20031;-85
2022/04/13 09:16:11;;;;;;;8.45;5.28;;;;;;;14.96;100.00;98762.91;4817091;29;19924;-84
2022/04/13 09:18:55;;;;;;;9.50;5.70;;;;;;;15.40;100.00;98769.66;4800587;29;20115;-86
2022/04/13 09:21:40;;;;;;;8.45;6.20;;;;;;;15.51;100.00;98765.38;4802903;29;20057;-85
2022/04/13 09:24:27;;;;;;;7.15;6.25;;;;;;;15.87;100.00;98765.25;4810833;29;20053;-85
2022/04/13 09:26:54;;;;;;;7.57;6.63;;;;;;;15.94;100.00;98758.03;4798804;29;20042;-86
2022/04/13 09:29:19;;;;;;;8.18;6.72;;;;;;;16.41;100.00;98757.78;4816776;29;20066;-84
2022/04/13 09:31:45;;;;;;;7.18;6.28;;;;;;;16.33;100.00;98771.44;4815116;29;20471;-84
2022/04/13 09:34:11;;;;;;;7.57;6.78;;;;;;;16.28;100.00;98724.47;4813205;29;20035;-85
2022/04/13 09:36:37;;;;;;;9.75;8.40;;;;;;;16.22;100.00;98761.69;4799027;29;20027;-83
2022/04/13 09:39:03;;;;;;;11.23;9.98;;;;;;;16.27;100.00;98777.66;4817908;29;20062;-84
2022/04/13 09:41:34;;;;;;;13.57;12.15;;;;;;;16.12;100.00;98760.50;4801736;29;20402;-84
2022/04/13 09:43:59;;;;;;;13.80;12.38;;;;;;;15.96;100.00;98767.31;4814243;29;20474;-84
2022/04/13 09:46:29;;;;;;;15.32;13.70;;;;;;;15.71;100.00;98786.13;4800323;29;20050;-83
2022/04/13 09:49:11;;;;;;;16.80;15.07;;;;;;;15.54;100.00;98781.59;4800548;29;20038;-84
2022/04/13 09:51:39;;;;;;;;;;;;;;;15.62;100.00;98793.63;4799625;29;20035;-85
2022/04/13 09:54:10;;;;;;;15.40;12.82;;;;;;;15.35;100.00;98780.13;4797670;29;19921;-84
2022/04/13 09:56:37;;;;;;;15.50;13.35;;;;;;;15.62;100.00;98792.84;4814483;29;20400;-85
2022/04/13 09:59:06;;;;;;;15.43;13.50;;;;;;;15.39;100.00;98783.91;4784589;29;20041;-86
2022/04/13 10:01:35;;;;;;;15.35;13.48;;;;;;;15.37;100.00;98793.94;4813660;29;20038;-84
2022/04/13 10:04:07;;;;;;;14.07;12.68;;;;;;;15.69;100.00;98798.78;4783933;29;20126;-85
2022/04/13 10:06:33;;;;;;;12.77;11.52;;;;;;;16.14;100.00;98810.53;4797027;29;20042;-85
2022/04/13 10:09:08;;;;;;;12.32;11.13;;;;;;;16.01;100.00;98789.63;4818785;29;20034;-85
2022/04/13 10:11:35;;;;;;;13.85;12.07;;;;;;;15.70;100.00;98818.94;4796619;29;20536;-85
2022/04/13 10:14:02;;;;;;;11.20;10.10;;;;;;;15.68;100.00;98783.97;4814620;29;20034;-84
2022/04/13 10:16:34;;;;;;;11.18;10.07;;;;;;;15.51;100.00;98820.94;4781167;29;20042;-84
2022/04/13 10:19:01;;;;;;;9.43;8.32;;;;;;;15.30;100.00;98795.88;4784807;29;20039;-85
2022/04/13 10:21:40;;;;;;;12.63;11.32;;;;;;;15.54;100.00;98813.34;4816561;29;20398;-85
2022/04/13 10:24:08;;;;;;;11.43;10.30;;;;;;;15.78;100.00;98813.28;4792541;29;20043;-85
2022/04/13 10:26:34;;;;;;;10.27;8.52;;;;;;;15.50;100.00;98808.75;4798200;29;20035;-83
2022/04/13 10:28:59;;;;;;;8.98;8.07;;;;;;;15.50;100.00;98806.09;4798259;29;20046;-85
2022/04/13 10:31:25;;;;;;;9.57;8.57;;;;;;;15.58;100.00;98818.94;4815173;29;20164;-84
2022/04/13 10:33:52;;;;;;;8.65;7.72;;;;;;;15.20;100.00;98807.84;4798257;29;20026;-84
2022/04/13 10:36:19;;;;;;;9.60;8.57;;;;;;;14.91;100.00;98778.63;4796468;29;20038;-85
2022/04/13 10:38:46;;;;;;;9.73;8.73;;;;;;;14.90;100.00;98837.03;4796266;29;20466;-84
2022/04/13 10:41:17;;;;;;;10.55;8.93;;;;;;;14.77;100.00;98804.47;4797492;29;20042;-84
2022/04/13 10:43:48;;;;;;;10.25;9.25;;;;;;;15.32;100.00;98831.63;4807238;29;20147;-86
2022/04/13 10:46:17;;;;;;;10.95;9.68;;;;;;;15.08;100.00;98815.78;4797888;29;20049;-85
2022/04/13 10:48:45;;;;;;;9.77;8.88;;;;;;;15.28;100.00;98835.78;4796220;29;20050;-84
2022/04/13 10:51:13;;;;;;;9.23;8.32;;;;;;;15.43;100.00;98848.53;4814358;29;20054;-85
2022/04/13 10:53:59;;;;;;;7.95;7.18;;;;;;;15.96;100.00;98844.09;4811275;29;20075;-86
2022/04/13 10:56:27;;;;;;;7.07;6.47;;;;;;;16.24;100.00;98831.94;4797573;29;20038;-85
2022/04/13 10:59:03;;;;;;;9.15;7.50;;;;;;;16.19;100.00;98836.31;4801071;29;20043;-84
2022/04/13 11:01:36;;;;;;;10.10;9.10;;;;;;;16.19;100.00;98844.25;4812832;29;20502;-85
2022/04/13 11:04:05;;;;;;;10.93;9.88;;;;;;;16.51;100.00;98863.13;4785008;29;20054;-85
2022/04/13 11:06:32;;;;;;;11.77;10.57;;;;;;;16.51;100.00;98871.06;4796739;29;20061;-84
2022/04/13 11:09:04;;;;;;;12.23;11.02;;;;;;;16.79;100.00;98874.72;4797481;29;20119;-86
2022/04/13 11:11:32;;;;;;;9.68;8.77;;;;;;;16.81;100.00;98870.00;4799064;29;20045;-85
2022/04/13 11:13:58;;;;;;;9.18;8.30;;;;;;;16.83;100.00;98836.09;4810354;29;20046;-86
2022/04/13 11:16:25;;;;;;;8.10;7.40;;;;;;;17.14;100.00;98867.63;4796689;29;20034;-86
2022/04/13 11:19:06;;;;;;;7.82;7.13;;;;;;;16.92;100.00;98868.31;4780810;29;20062;-86
2022/04/13 11:21:33;;;;;;;9.10;8.20;;;;;;;17.35;100.00;98842.19;4785145;29;20541;-85
2022/04/13 11:23:59;;;;;;;9.80;8.90;;;;;;;17.32;100.00;98865.78;4817873;29;20031;-85
2022/04/13 11:26:35;;;;;;;9.30;8.40;;;;;;;17.39;100.00;98847.81;4798083;29;20168;-85
2022/04/13 11:29:09;;;;;;;10.13;9.23;;;;;;;17.14;100.00;98867.63;4785985;29;20466;-86
2022/04/13 11:32:00;;;;;;;9.48;8.68;;;;;;;16.75;100.00;98870.16;4783121;29;20045;-85
2022/04/13 11:34:45;;;;;;;11.10;10.10;;;;;;;16.80;100.00;98881.66;4798954;29;20432;-84
2022/04/13 11:37:14;;;;;;;6.68;6.10;;;;;;;16.40;100.00;98880.69;4777537;29;20034;-85
2022/04/13 11:39:46;;;;;;;6.72;6.13;;;;;;;17.03;100.00;98884.41;4785869;29;20038;-83
2022/04/13 11:42:22;;;;;;;6.13;5.63;;;;;;;17.35;100.00;98870.59;4778131;29;20497;-86
2022/04/13 11:44:53;;;;;;;4.90;4.60;;;;;;;17.68;100.00;98875.03;4813261;29;20042;-85
2022/04/13 11:47:19;;;;;;;5.40;4.90;;;;;;;16.81;100.00;98877.13;4820850;29;20414;-84
2022/04/13 11:50:24;;;;;;;6.30;5.70;;;;;;;16.64;100.00;98866.53;4820264;29;20100;-85
2022/04/13 11:52:54;;;;;;;8.13;7.45;;;;;;;16.57;100.00;98885.22;4798791;29;20113;-85
2022/04/13 11:55:22;;;;;;;8.25;7.55;;;;;;;16.17;100.00;98857.72;4788977;29;20042;-86
2022/04/13 11:58:09;;;;;;;9.23;8.45;;;;;;;16.76;100.00;98890.31;4788116;29;20052;-85
2022/04/13 12:00:44;;;;;;;8.05;7.35;;;;;;;17.59;100.00;98884.47;4806659;29;20569;-86
2022/04/13 12:03:15;;;;;;;7.68;6.88;;;;;;;17.67;100.00;98884.03;4800610;29;20063;-85
2022/04/13 12:05:49;;;;;;;6.35;5.85;;;;;;;17.06;100.00;98886.59;4786147;29;20371;-86
2022/04/13 12:08:18;;;;;;;6.88;6.28;;;;;;;17.14;100.00;98880.88;4782066;29;20554;-85
2022/04/13 12:10:46;;;;;;;8.10;7.13;;;;;;;16.97;100.00;98886.16;4784653;29;20081;-85
2022/04/13 12:13:12;;;;;;;6.47;5.97;;;;;;;17.19;100.00;98873.00;4799388;29;20123;-86
2022/04/13 12:15:50;;;;;;;7.30;6.25;;;;;;;17.99;100.00;98885.22;4801772;29;20038;-84
2022/04/13 12:18:16;;;;;;;6.47;5.88;;;;;;;18.04;99.76;98877.34;4787024;29;20444;-85
2022/04/13 12:20:43;;;;;;;5.70;5.13;;;;;;;17.37;100.00;98884.41;4789231;29;20100;-85
2022/04/13 12:23:21;;;;;;;6.22;5.72;;;;;;;16.54;100.00;98861.84;4801379;29;20410;-85
2022/04/13 12:25:50;;;;;;;5.55;5.05;;;;;;;16.93;100.00;98875.22;4815557;29;20026;-85
2022/04/13 12:28:16;;;;;;;6.03;5.13;;;;;;;17.51;100.00;98874.25;4797375;29;20092;-85
2022/04/13 12:30:42;;;;;;;14.98;6.03;;;;;;;18.16;98.35;98876.41;4803724;29;20042;-86
2022/04/13 12:33:23;;;;;;;7.45;6.13;;;;;;;18.08;97.67;98878.47;4817991;29;20035;-86
2022/04/13 12:35:50;;;;;;;6.32;5.82;;;;;;;17.39;100.00;98891.09;4793733;29;20071;-86
2022/04/13 12:38:27;;;;;;;7.20;6.47;;;;;;;17.47;99.81;98897.81;4791197;29;20038;-85
2022/04/13 12:41:20;;;;;;;7.95;7.25;;;;;;;16.83;100.00;98898.91;4800256;29;20398;-85
2022/04/13 12:43:59;;;;;;;9.55;7.55;;;;;;;16.37;100.00;98926.19;4814072;29;20409;-84
2022/04/13 12:46:30;;;;;;;7.82;7.13;;;;;;;16.31;100.00;98928.97;4798884;29;20046;-85
2022/04/13 12:49:01;;;;;;;9.80;7.22;;;;;;;15.95;100.00;98918.47;4821178;29;20050;-85
2022/04/13 12:51:35;;;;;;;6.85;6.25;;;;;;;15.83;100.00;98935.13;4800537;29;20482;-85
2022/04/13 12:54:04;;;;;;;8.55;7.22;;;;;;;16.03;100.00;98926.03;4804253;29;20059;-84
2022/04/13 12:56:33;;;;;;;7.43;6.60;;;;;;;16.55;100.00;98932.34;4782894;29;20079;-84
2022/04/13 12:58:59;;;;;;;9.82;6.82;;;;;;;16.53;100.00;98921.19;4801211;29;20446;-84
2022/04/13 13:01:33;;;;;;;7.97;6.53;;;;;;;16.25;100.00;98928.06;4798617;29;20485;-85
2022/04/13 13:04:07;;;;;;;8.68;6.00;;;;;;;16.56;100.00;98933.97;4812244;29;20084;-86
2022/04/13 13:06:39;;;;;;;7.30;6.45;;;;;;;15.76;100.00;98925.69;4785345;29;20035;-85
2022/04/13 13:09:06;;;;;;;8.88;6.93;;;;;;;16.00;100.00;98942.38;4810704;29;20054;-84
2022/04/13 13:11:38;;;;;;;9.25;7.78;;;;;;;15.47;100.00;98944.91;4800929;29;20046;-85
2022/04/13 13:14:08;;;;;;;11.05;9.00;;;;;;;15.42;100.00;98911.19;4799476;29;20038;-83
2022/04/13 13:16:39;;;;;;;11.75;8.68;;;;;;;15.97;100.00;98932.28;4803563;29;20457;-85
2022/04/13 13:19:18;;;;;;;10.63;8.43;;;;;;;16.47;100.00;98945.94;4785048;29;20494;-85
2022/04/13 13:22:15;;;;;;;10.35;8.13;;;;;;;17.06;100.00;98959.00;4796477;29;20137;-85
2022/04/13 13:24:44;;;;;;;9.50;7.53;;;;;;;17.53;100.00;98941.97;4799518;29;20042;-85
2022/04/13 13:27:10;;;;;;;8.43;7.60;;;;;;;17.35;100.00;98955.47;4783392;29;20060;-85
2022/04/13 13:29:43;;;;;;;8.82;7.93;;;;;;;17.13;100.00;98945.59;4817011;29;20034;-85
2022/04/13 13:32:13;;;;;;;9.85;7.50;;;;;;;17.30;100.00;98944.78;4788250;29;20553;-88
2022/04/13 13:34:47;;;;;;;8.27;7.15;;;;;;;17.33;99.91;98928.38;4789949;29;20092;-88
2022/04/13 13:37:29;;;;;;;8.05;6.00;;;;;;;17.41;98.82;98925.31;4796238;29;20049;-89
2022/04/13 13:44:23;;;;;;;7.30;6.40;;;;;;;16.79;100.00;98972.00;4796572;29;20081;-89
2022/04/13 13:46:49;;;;;;;7.00;6.18;;;;;;;16.62;100.00;98932.22;4772324;29;20058;-86
2022/04/13 13:49:14;;;;;;;8.55;7.47;;;;;;;16.73;100.00;98971.09;4816393;29;20042;-88
2022/04/13 13:51:41;;;;;;;9.23;6.43;;;;;;;16.71;100.00;98941.38;4812780;29;20060;-90
2022/04/13 13:54:08;;;;;;;9.10;7.43;;;;;;;16.85;100.00;98961.25;4799014;29;20038;-89
2022/04/13 13:56:34;;;;;;;9.38;7.10;;;;;;;16.65;100.00;98968.84;4820982;29;20075;-91
2022/04/13 13:59:01;;;;;;;10.55;7.13;;;;;;;16.64;100.00;98973.31;4789873;29;20042;-92
2022/04/13 14:01:27;;;;;;;10.90;7.25;;;;;;;17.18;100.00;98974.84;4799918;29;20027;-91
2022/04/13 14:03:53;;;;;;;23.65;9.60;;;;;;;17.07;100.00;98959.78;4797295;30;20051;-88
2022/04/13 14:06:21;;;;;;;15.07;9.90;;;;;;;16.84;100.00;98977.38;4781634;29;20077;-87
2022/04/13 14:08:50;;;;;;;14.23;9.35;;;;;;;16.57;100.00;98962.06;4818488;29;20034;-89
2022/04/13 14:11:17;;;;;;;11.30;9.27;;;;;;;16.91;100.00;98970.13;4819958;29;20043;-90
2022/04/13 14:14:06;;;;;;;10.75;9.30;;;;;;;16.90;100.00;98981.75;4800126;29;20037;-89
2022/04/13 14:16:32;;;;;;;14.43;9.77;;;;;;;16.68;100.00;98987.69;4790346;29;20039;-89
2022/04/13 14:18:58;;;;;;;11.57;8.70;;;;;;;17.15;100.00;98967.38;4808570;29;20030;-89
2022/04/13 14:21:24;;;;;;;11.80;8.77;;;;;;;17.82;100.00;98984.31;4794965;29;20034;-88
2022/04/13 14:23:50;;;;;;;11.98;9.30;;;;;;;17.88;98.12;98963.13;4819509;29;20375;-89
2022/04/13 14:29:59;;;;;;;9.90;7.53;;;;;;;17.80;96.41;98957.19;4769303;30;20066;-89
2022/04/13 14:32:26;;;;;;;7.85;6.93;;;;;;;17.37;98.76;98982.56;4755520;30;20044;-89
2022/04/13 14:34:52;;;;;;;11.50;7.97;;;;;;;17.22;99.55;98962.69;4796055;29;20046;-89
2022/04/13 14:37:20;;;;;;;8.90;7.45;;;;;;;16.77;99.43;98934.34;4815734;29;20510;-90
2022/04/13 14:39:47;;;;;;;8.35;6.90;;;;;;;16.83;100.00;98992.50;4788530;29;20050;-89
2022/04/13 14:42:16;;;;;;;10.50;6.75;;;;;;;16.85;100.00;98992.25;4792592;29;20030;-89
2022/04/13 14:44:41;;;;;;;7.47;6.72;;;;;;;16.65;100.00;98984.75;4804225;29;20043;-89
2022/04/13 14:47:09;;;;;;;9.65;7.18;;;;;;;16.55;100.00;98985.34;4789857;29;20054;-90
2022/04/13 14:49:35;;;;;;;8.02;6.45;;;;;;;16.26;100.00;98982.63;4792823;29;20122;-89
2022/04/13 14:52:02;;;;;;;10.75;7.07;;;;;;;16.48;100.00;99001.38;4801220;29;20136;-90
2022/04/13 14:54:37;;;;;;;8.60;5.93;;;;;;;16.73;100.00;99018.00;4788440;29;20046;-90
2022/04/13 14:57:04;;;;;;;7.05;5.88;;;;;;;16.80;100.00;98987.69;4790626;29;20058;-89
2022/04/13 14:59:34;;;;;;;7.93;5.60;;;;;;;16.81;100.00;98999.88;4795214;29;20554;-89
2022/04/13 15:02:02;;;;;;;9.27;5.80;;;;;;;16.80;100.00;99008.88;4790486;29;20494;-90
2022/04/13 15:04:28;;;;;;;6.85;5.80;;;;;;;17.54;100.00;99015.22;4797878;29;20039;-90
2022/04/13 15:06:54;;;;;;;8.05;5.22;;;;;;;17.63;100.00;98991.75;4791519;29;20051;-90
2022/04/13 15:09:20;;;;;;;6.85;5.85;;;;;;;18.12;98.74;99003.59;4788670;29;20035;-90
2022/04/13 15:11:45;;;;;;;7.30;5.72;;;;;;;18.09;97.63;99018.19;4793304;29;20034;-91
2022/04/13 15:14:11;;;;;;;6.30;5.70;;;;;;;18.15;97.05;99002.31;4788039;29;20035;-89
2022/04/13 15:16:38;;;;;;;7.25;5.47;;;;;;;18.42;95.32;99013.03;4778638;29;20034;-90
2022/04/13 15:19:22;;;;;;;6.15;5.50;;;;;;;18.86;94.97;99014.84;4800940;29;20042;-91
2022/04/13 15:21:47;;;;;;;6.45;5.38;;;;;;;18.70;94.68;98974.81;4797465;29;20042;-89
2022/04/13 15:24:15;;;;;;;7.22;5.45;;;;;;;19.06;93.16;98965.59;4782617;29;20079;-90
2022/04/13 15:26:41;;;;;;;4.90;4.60;;;;;;;19.62;91.42;98973.22;4791170;29;20127;-89
2022/04/13 15:29:07;;;;;;;5.68;5.18;;;;;;;19.57;89.98;99025.63;4783811;29;20054;-90
2022/04/13 15:31:34;;;;;;;5.72;5.25;;;;;;;19.16;90.97;99002.13;4789775;29;20046;-90
2022/04/13 15:34:00;;;;;;;6.20;5.60;;;;;;;18.66;91.73;98931.16;4804868;29;20034;-90
2022/04/13 15:36:26;;;;;;;5.43;4.93;;;;;;;18.89;92.46;98989.63;4821713;29;20044;-90
2022/04/13 15:38:52;;;;;;;4.75;4.43;;;;;;;19.49;90.35;99006.41;4788450;29;20057;-91
2022/04/13 15:41:22;;;;;;;4.95;4.55;;;;;;;18.79;90.50;98987.66;4802703;29;20433;-90
2022/04/13 15:43:49;;;;;;;5.30;4.85;;;;;;;18.89;89.93;99017.03;4788175;29;20401;-91
2022/04/13 15:46:15;;;;;;;5.38;4.95;;;;;;;19.63;89.26;99008.63;4785442;29;20052;-89
2022/04/13 15:48:42;;;;;;;6.00;5.57;;;;;;;19.87;88.37;99037.59;4794282;29;20459;-88
2022/04/13 15:51:08;;;;;;;5.90;5.43;;;;;;;19.66;87.34;99042.75;4780802;29;20042;-87
2022/04/13 15:53:37;;;;;;;6.50;5.85;;;;;;;19.88;87.64;99036.53;4796344;29;20479;-89
2022/04/13 15:56:04;;;;;;;5.53;5.15;;;;;;;20.43;86.07;99036.31;4783661;29;20046;-87
2022/04/13 15:58:31;;;;;;;6.43;5.93;;;;;;;19.56;86.50;99032.84;4794056;29;20035;-87
2022/04/13 16:00:57;;;;;;;6.22;5.68;;;;;;;18.93;88.35;99031.41;4809046;29;20042;-88